• Join FlightAware (Why Join?)
  • Login
  • US Flag 
09:05PM EDT


 

Airport Tracker/Info


-or-


 

Live Flight TrackerFlight Track Log ✈ SWA685 ✈ 19-Oct-2013 ✈ KDEN - KABQ

Flight Track Log - Related Links

Times and Time Zones

All times are in EDT time to prevent confusion due to time zone crossing. See the SWA685 flight status page for this flight to view local times or setup timezone preferences in your user account.

Time Position Orientation Groundspeed Altitude Reporting Facility
EDT Latitude Longitude Course Direction KTS MPH feet Rate Location/Type
10:45PM 39.8333 -104.7667 207° Southwest 197 227 7,500  Level Denver TRACON
10:46PM 39.7833 -104.8000 207° Southwest 266 306 9,900 2,520 Climbing Denver TRACON
10:47PM 39.7000 -104.7833 171° South 323 372 12,600 2,520 Climbing Denver TRACON
10:48PM 39.6000 -104.7833 180° South 366 421 15,000 2,640 Climbing Denver TRACON
10:49PM 39.4833 -104.7667 174° South 391 450 17,900 2,700 Climbing Denver TRACON
10:50PM 39.3833 -104.7667 180° South 404 465 20,500 2,580 Climbing Denver TRACON
10:52PM 39.2353 -104.7539 176° South 419 482 23,800 2,220 Climbing Denver Center
10:53PM 39.1308 -104.7442 176° South 408 470 25,600 1,800 Climbing Denver Center
10:54PM 39.0117 -104.7561 184° South 424 488 27,500 1,800 Climbing Denver Center
10:55PM 38.9061 -104.8217 206° Southwest 418 481 29,300 1,620 Climbing Denver Center
10:56PM 38.7953 -104.8906 206° Southwest 436 502 30,800 1,320 Climbing Denver Center
10:57PM 38.6628 -104.9789 208° Southwest 446 513 32,000 540 Climbing Denver Center
10:58PM 38.5519 -105.0553 208° Southwest 452 520 32,000  Level Denver Center
10:59PM 38.4414 -105.1328 209° Southwest 453 521 32,000  Level Denver Center
11:00PM 38.3383 -105.2028 208° Southwest 455 524 32,000  Level Denver Center
11:01PM 38.2131 -105.2878 208° Southwest 458 527 32,000  Level Denver Center
11:02PM 38.1061 -105.3606 208° Southwest 457 526 32,000  Level Denver Center
11:03PM 37.9992 -105.4328 208° Southwest 456 525 32,000  Level Denver Center
11:04PM 37.8739 -105.5181 208° Southwest 457 526 32,000  Level Denver Center
11:05PM 37.7675 -105.5903 208° Southwest 455 524 32,000  Level Denver Center
11:06PM 37.6586 -105.6519 204° Southwest 450 518 32,000  Level Denver Center
11:07PM 37.5319 -105.7103 200° South 447 514 32,000  Level Denver Center
11:08PM 37.4219 -105.7628 201° Southwest 443 510 32,000  Level Denver Center
11:09PM 37.3125 -105.8133 200° South 439 505 32,000  Level Denver Center
11:10PM 37.1844 -105.8725 200° South 438 504 32,000  Level Denver Center
11:11PM 37.0764 -105.9242 201° Southwest 435 501 32,000  Level Denver Center
11:12PM 36.9633 -105.9758 200° South 442 509 32,000  Level Denver Center
11:13PM 36.8328 -106.0372 201° Southwest 448 516 32,000  Level Denver Center
11:14PM 36.7214 -106.0872 200° South 450 518 32,000  Level Denver Center
11:15PM 36.6047 -106.1431 201° Southwest 450 518 32,000  Level Denver Center
11:15PM 36.5294 -106.1772 200° South 450 518 32,000  Level Albuquerque Center
11:16PM 36.4094 -106.2300 199° South 454 522 32,000 -60 Level Albuquerque Center
11:17PM 36.2911 -106.2822 200° South 453 521 31,900 -1,200 Descending Albuquerque Center
11:19PM 36.1722 -106.3342 199° South 454 522 29,600 -2,340 Descending Albuquerque Center
11:20PM 36.0611 -106.3836 200° South 433 498 27,200 -2,340 Descending Albuquerque Center
11:21PM 35.9539 -106.4297 199° South 416 479 25,000 -2,280 Descending Albuquerque Center
11:22PM 35.8400 -106.4744 198° South 394 453 22,600 -2,340 Descending Albuquerque Center
11:23PM 35.7328 -106.5181 198° South 379 436 20,300 -2,040 Descending Albuquerque Center
11:24PM 35.6536 -106.5519 199° South 373 429 18,600 -2,040 Descending Albuquerque Center
11:24PM 35.6211 -106.5644 197° South 368 423 17,900 -2,520 Descending Albuquerque Center
11:24PM 35.5833 -106.5797 198° South 363 418 17,200 -1,560 Descending Albuquerque Center
11:25PM 35.5594 -106.5922 203° Southwest 360 414 16,600 -1,800 Descending Albuquerque Center
11:25PM 35.4958 -106.6286 205° Southwest 348 400 15,400 -1,980 Descending Albuquerque Center
11:26PM 35.4547 -106.6506 204° Southwest 345 397 14,600 -1,740 Descending Albuquerque Center
11:26PM 35.4006 -106.6819 205° Southwest 324 373 13,500 -1,740 Descending Albuquerque Center
11:27PM 35.3744 -106.6947 202° Southwest 319 367 12,900 -1,680 Descending Albuquerque Center
11:27PM 35.3225 -106.7228 204° Southwest 301 346 11,800 -1,680 Descending Albuquerque Center
11:28PM 35.2972 -106.7350 202° Southwest 304 350 11,200 -1,620 Descending Albuquerque Center
11:28PM 35.2483 -106.7628 205° Southwest 290 334 10,200 -1,320 Descending Albuquerque Center
11:29PM 35.2261 -106.7781 209° Southwest 287 330 9,900 -720 Descending Albuquerque Center
11:29PM 35.1839 -106.7844 187° South 269 310 9,600 -540 Descending Albuquerque Center
11:30PM 35.1533 -106.7750 166° South 273 314 9,400 -900 Descending Albuquerque Center
11:30PM 35.1119 -106.7639 168° South 259 298 8,700 -1,020 Descending Albuquerque Center
11:31PM 35.0842 -106.7542 164° South 247 284 8,400 -960 Descending Albuquerque Center
11:31PM 35.0500 -106.7383 159° South 179 206 7,700 -1,320 Descending Albuquerque Center
11:32PM 35.0433 -106.7211 115° Southeast 173 199 7,100 -1,320 Descending Albuquerque Center
11:32PM 35.0450 -106.6853 87° East 149 171 6,400 -1,020 Descending Albuquerque Center
11:33PM 35.0444 -106.6667 92° East 157 181 6,100 -840 Descending Albuquerque Center
11:33PM 35.0444 -106.6336 90° East 146 168 5,600 -720 Descending Albuquerque Center
11:34PM 35.0439 -106.6161 92° East 151 174 5,400 -600 Descending Albuquerque Center
11:36PM 35.0402 -106.6092 112° Southeast  Level Estimated